createdAt,value
2022-09-17T00:01:32.977Z,98201.78
2022-09-17T00:04:04.914Z,98205.06
2022-09-17T00:06:35.792Z,98199.84
2022-09-17T00:09:06.858Z,98197.72
2022-09-17T00:11:41.537Z,98211.97
2022-09-17T00:14:17.355Z,98206.06
2022-09-17T00:16:48.004Z,98201.78
2022-09-17T00:19:23.412Z,98212.41
2022-09-17T00:21:51.885Z,98211.38
2022-09-17T00:24:20.980Z,98217.16
2022-09-17T00:26:50.168Z,98212.09
2022-09-17T00:29:17.612Z,98219.25
2022-09-17T00:31:44.937Z,98207.22
2022-09-17T00:34:12.516Z,98223.38
2022-09-17T00:36:40.940Z,98221.63
2022-09-17T00:39:12.963Z,98222.66
2022-09-17T00:41:40.537Z,98231.31
2022-09-17T00:44:52.980Z,98234.31
2022-09-17T00:48:02.132Z,98225.81
2022-09-17T00:50:42.364Z,98226.16
2022-09-17T00:53:18.596Z,98233.50
2022-09-17T00:56:32.064Z,98241.66
2022-09-17T00:59:03.669Z,98238.09
2022-09-17T01:01:32.889Z,98248.81
2022-09-17T01:04:00.429Z,98253.41
2022-09-17T01:07:22.204Z,98255.91
2022-09-17T01:10:31.313Z,98254.25
2022-09-17T01:13:49.019Z,98247.53
2022-09-17T01:16:55.499Z,98254.44
2022-09-17T01:20:42.534Z,98250.50
2022-09-17T01:24:02.926Z,98254.59
2022-09-17T01:27:15.708Z,98264.44
2022-09-17T01:30:28.455Z,98265.72
2022-09-17T01:33:56.569Z,98265.09
2022-09-17T01:37:12.027Z,98272.41
2022-09-17T01:40:01.703Z,98272.81
2022-09-17T01:43:23.247Z,98275.34
2022-09-17T01:46:12.638Z,98280.97
2022-09-17T01:48:48.022Z,98279.09
2022-09-17T01:51:23.221Z,98277.38
2022-09-17T01:54:21.937Z,98276.81
2022-09-17T01:57:44.827Z,98286.41
2022-09-17T02:00:16.145Z,98277.75
2022-09-17T02:03:30.585Z,98283.41
2022-09-17T02:06:15.660Z,98292.47
2022-09-17T02:09:05.989Z,98290.16
2022-09-17T02:11:37.132Z,98299.16
2022-09-17T02:14:17.359Z,98298.09
2022-09-17T02:16:58.937Z,98305.34
2022-09-17T02:19:34.861Z,98295.41
2022-09-17T02:22:52.623Z,98296.03
2022-09-17T02:25:38.867Z,98306.53
2022-09-17T02:28:27.986Z,98302.84
2022-09-17T02:30:55.430Z,98301.84
2022-09-17T02:33:23.856Z,98306.38
2022-09-17T02:35:51.245Z,98309.09
2022-09-17T02:38:31.590Z,98305.94
2022-09-17T02:41:25.993Z,98313.25
2022-09-17T02:45:08.052Z,98312.81
2022-09-17T02:48:03.015Z,98309.66
2022-09-17T02:51:41.112Z,98305.31
2022-09-17T02:55:18.971Z,98309.63
2022-09-17T02:58:28.637Z,98297.91
2022-09-17T03:01:04.952Z,98311.31
2022-09-17T03:03:43.694Z,98310.88
2022-09-17T03:06:10.976Z,98308.88
2022-09-17T03:08:42.860Z,98309.13
2022-09-17T03:11:12.991Z,98303.47
2022-09-17T03:13:40.801Z,98298.16
2022-09-17T03:16:09.402Z,98303.47
2022-09-17T03:18:37.029Z,98297.97
2022-09-17T03:21:04.760Z,98295.34
2022-09-17T03:23:32.903Z,98299.00
2022-09-17T03:26:00.769Z,98306.44
2022-09-17T03:28:28.061Z,98297.34
2022-09-17T03:30:55.527Z,98296.78
2022-09-17T03:33:22.884Z,98294.91
2022-09-17T03:35:50.184Z,98299.75
2022-09-17T03:38:18.420Z,98299.25
2022-09-17T03:40:56.228Z,98296.63
2022-09-17T03:43:23.483Z,98298.22
2022-09-17T03:45:50.737Z,98299.81
2022-09-17T03:48:18.033Z,98291.63
2022-09-17T03:50:46.197Z,98291.38
2022-09-17T03:53:13.765Z,98293.53
2022-09-17T03:55:41.657Z,98295.59
2022-09-17T03:58:09.329Z,98303.25
2022-09-17T04:00:39.744Z,98293.91
2022-09-17T04:03:07.687Z,98298.72
2022-09-17T04:05:34.961Z,98306.78
2022-09-17T04:08:02.726Z,98308.75
2022-09-17T04:10:29.977Z,98318.91
2022-09-17T04:12:57.262Z,98331.59
2022-09-17T04:15:24.520Z,98330.47
2022-09-17T04:17:57.780Z,98329.91
2022-09-17T04:20:26.609Z,98337.03
2022-09-17T04:22:54.413Z,98341.28
2022-09-17T04:25:22.604Z,98338.59
2022-09-17T04:27:50.132Z,98337.72
2022-09-17T04:30:18.177Z,98345.44
2022-09-17T04:32:46.758Z,98335.69
2022-09-17T04:35:14.345Z,98341.94
2022-09-17T04:37:41.633Z,98348.03
2022-09-17T04:40:10.420Z,98346.00
2022-09-17T04:42:37.793Z,98347.25
2022-09-17T04:45:05.949Z,98343.41
2022-09-17T04:47:33.220Z,98342.34
2022-09-17T04:50:00.481Z,98350.09
2022-09-17T04:52:30.963Z,98350.88
2022-09-17T04:54:58.399Z,98354.81
2022-09-17T04:57:26.202Z,98358.28
2022-09-17T04:59:53.584Z,98360.97
2022-09-17T05:02:20.973Z,98364.84
2022-09-17T05:04:48.400Z,98362.41
2022-09-17T05:07:15.666Z,98362.88
2022-09-17T05:09:43.068Z,98367.84
2022-09-17T05:12:10.388Z,98366.19
2022-09-17T05:14:37.675Z,98368.81
2022-09-17T05:17:04.957Z,98368.22
2022-09-17T05:19:32.213Z,98381.66
2022-09-17T05:21:59.483Z,98378.00
2022-09-17T05:24:27.359Z,98388.69
2022-09-17T05:26:54.732Z,98380.66
2022-09-17T05:29:22.048Z,98386.50
2022-09-17T05:31:49.377Z,98387.19
2022-09-17T05:34:16.706Z,98379.94
2022-09-17T05:36:43.984Z,98387.34
2022-09-17T05:39:13.065Z,98393.81
2022-09-17T05:41:40.323Z,98384.53
2022-09-17T05:44:07.611Z,98379.91
2022-09-17T05:46:34.898Z,98389.25
2022-09-17T05:49:02.200Z,98389.09
2022-09-17T05:51:29.508Z,98393.91
2022-09-17T05:53:58.336Z,98395.81
2022-09-17T05:56:25.657Z,98400.28
2022-09-17T05:58:57.208Z,98399.66
2022-09-17T06:01:25.045Z,98387.78
2022-09-17T06:03:52.556Z,98393.00
2022-09-17T06:06:19.888Z,98404.50
2022-09-17T06:08:47.161Z,98395.41
2022-09-17T06:11:14.421Z,98403.97
2022-09-17T06:13:43.547Z,98407.19
2022-09-17T06:16:10.938Z,98416.72
2022-09-17T06:18:38.231Z,98426.66
2022-09-17T06:21:05.720Z,98431.25
2022-09-17T06:23:37.673Z,98440.31
2022-09-17T06:26:06.661Z,98442.28
2022-09-17T06:28:37.899Z,98452.06
2022-09-17T06:31:11.327Z,98464.56
2022-09-17T06:33:41.516Z,98458.03
2022-09-17T06:36:14.557Z,98457.75
2022-09-17T06:38:42.843Z,98459.59
2022-09-17T06:41:10.340Z,98456.16
2022-09-17T06:43:38.823Z,98461.53
2022-09-17T06:46:08.962Z,98471.31
2022-09-17T06:48:38.305Z,98460.56
2022-09-17T06:51:10.511Z,98468.88
2022-09-17T06:53:39.273Z,98466.13
2022-09-17T06:56:10.130Z,98469.72
2022-09-17T06:58:38.472Z,98473.09
2022-09-17T07:01:06.491Z,98470.34
2022-09-17T07:03:34.601Z,98468.84
2022-09-17T07:06:01.964Z,98465.88
2022-09-17T07:08:29.407Z,98475.91
2022-09-17T07:10:58.477Z,98471.50
2022-09-17T07:13:26.555Z,98482.47
2022-09-17T07:16:00.943Z,98475.09
2022-09-17T07:18:29.288Z,98469.69
2022-09-17T07:21:04.190Z,98471.50
2022-09-17T07:23:36.685Z,98484.84
2022-09-17T07:26:14.478Z,98485.22
2022-09-17T07:28:43.693Z,98495.59
2022-09-17T07:31:16.377Z,98491.59
2022-09-17T07:33:45.584Z,98493.75
2022-09-17T07:36:17.947Z,98492.88
2022-09-17T07:38:45.686Z,98492.16
2022-09-17T07:41:18.432Z,98498.69
2022-09-17T07:43:47.868Z,98498.31
2022-09-17T07:46:19.908Z,98496.88
2022-09-17T07:48:49.248Z,98502.94
2022-09-17T07:51:24.763Z,98509.34
2022-09-17T07:53:59.294Z,98509.72
2022-09-17T07:56:28.740Z,98509.16
2022-09-17T07:58:56.279Z,98507.88
2022-09-17T08:01:24.099Z,98507.91
2022-09-17T08:03:54.572Z,98508.72
2022-09-17T08:06:26.931Z,98511.22
2022-09-17T08:08:57.051Z,98502.28
2022-09-17T08:14:16.831Z,98516.63
2022-09-17T08:16:46.411Z,98505.94
2022-09-17T08:19:13.872Z,98516.81
2022-09-17T08:21:41.125Z,98512.03
2022-09-17T08:24:08.734Z,98513.69
2022-09-17T08:26:36.091Z,98521.06
2022-09-17T08:29:03.751Z,98522.78
2022-09-17T08:31:33.273Z,98519.25
2022-09-17T08:34:01.000Z,98514.38
2022-09-17T08:36:28.654Z,98522.81
2022-09-17T08:38:56.787Z,98522.50
2022-09-17T08:42:20.604Z,98513.38
2022-09-17T08:44:51.850Z,98517.66
2022-09-17T08:47:37.888Z,98518.03
2022-09-17T08:50:26.616Z,98524.34
2022-09-17T08:53:33.929Z,98524.72
2022-09-17T08:56:22.184Z,98533.72
2022-09-17T08:59:33.872Z,98534.16
2022-09-17T09:03:03.840Z,98536.75
2022-09-17T09:05:53.339Z,98544.06
2022-09-17T09:09:15.836Z,98541.66
2022-09-17T09:11:44.533Z,98540.63
2022-09-17T09:14:33.458Z,98545.16
2022-09-17T09:17:10.529Z,98544.22
2022-09-17T09:19:46.539Z,98540.84
2022-09-17T09:22:49.859Z,98537.97
2022-09-17T09:25:23.342Z,98538.19
2022-09-17T09:28:52.183Z,98533.19
2022-09-17T09:32:15.575Z,98547.03
2022-09-17T09:34:44.953Z,98545.44
2022-09-17T09:37:31.376Z,98544.16
2022-09-17T09:40:32.087Z,98545.34
2022-09-17T09:43:11.757Z,98545.06
2022-09-17T09:46:19.509Z,98552.06
2022-09-17T09:49:49.532Z,98548.75
2022-09-17T09:52:59.776Z,98550.59
2022-09-17T09:55:52.565Z,98539.34
2022-09-17T09:58:46.099Z,98548.47
2022-09-17T10:01:20.748Z,98547.72
2022-09-17T10:03:52.603Z,98551.00
2022-09-17T10:06:20.712Z,98550.56
2022-09-17T10:08:51.072Z,98571.69
2022-09-17T10:11:29.004Z,98557.22
2022-09-17T10:14:24.634Z,98570.88
2022-09-17T10:17:23.846Z,98561.56
2022-09-17T10:20:00.050Z,98559.03
2022-09-17T10:22:47.703Z,98557.75
2022-09-17T10:25:34.784Z,98554.50
2022-09-17T10:28:20.953Z,98549.50
2022-09-17T10:31:10.302Z,98545.13
2022-09-17T10:34:04.533Z,98554.78
2022-09-17T10:36:46.110Z,98548.09
2022-09-17T10:39:34.217Z,98555.75
2022-09-17T10:42:15.699Z,98544.97
2022-09-17T10:45:00.975Z,98545.63
2022-09-17T10:47:51.165Z,98537.03
2022-09-17T10:50:36.600Z,98538.84
2022-09-17T10:53:14.652Z,98536.66
2022-09-17T10:56:23.843Z,98532.63
2022-09-17T10:59:24.637Z,98546.47
2022-09-17T11:03:11.017Z,98539.91
2022-09-17T11:06:50.022Z,98532.06
2022-09-17T11:10:06.928Z,98539.31
2022-09-17T11:13:26.315Z,98538.38
2022-09-17T11:16:32.881Z,98525.38
2022-09-17T11:19:37.463Z,98534.47
2022-09-17T11:22:51.917Z,98523.78
2022-09-17T11:26:06.597Z,98528.56
2022-09-17T11:30:03.224Z,98532.31
2022-09-17T11:33:38.340Z,98525.44
2022-09-17T11:36:25.361Z,98542.47
2022-09-17T11:39:00.793Z,98544.59
2022-09-17T11:41:40.253Z,98541.09
2022-09-17T11:44:30.923Z,98535.63
2022-09-17T11:47:15.072Z,98524.88
2022-09-17T11:50:23.959Z,98537.16
2022-09-17T11:53:19.520Z,98540.19
2022-09-17T11:56:03.270Z,98521.03
2022-09-17T11:59:11.695Z,98534.16
2022-09-17T12:02:23.367Z,98541.53
2022-09-17T12:05:49.011Z,98536.22
2022-09-17T12:08:25.156Z,98537.00
2022-09-17T12:11:42.191Z,98535.88
2022-09-17T12:14:49.959Z,98537.13
2022-09-17T12:17:48.035Z,98540.25
2022-09-17T12:20:40.123Z,98535.28
2022-09-17T12:23:18.602Z,98530.81
2022-09-17T12:26:50.767Z,98520.97
2022-09-17T12:30:29.656Z,98550.97
2022-09-17T12:33:41.778Z,98525.09
2022-09-17T12:36:52.733Z,98539.41
2022-09-17T12:40:26.352Z,98518.47
2022-09-17T12:42:59.722Z,98531.19
2022-09-17T12:46:13.354Z,98552.84
2022-09-17T12:49:29.870Z,98523.88
2022-09-17T12:52:30.493Z,98536.22
2022-09-17T12:56:00.739Z,98540.84
2022-09-17T12:58:57.829Z,98546.22
2022-09-17T13:02:15.465Z,98534.81
2022-09-17T13:05:36.296Z,98549.13
2022-09-17T13:08:40.558Z,98536.19
2022-09-17T13:12:04.655Z,98535.25
2022-09-17T13:15:22.794Z,98517.41
2022-09-17T13:18:26.596Z,98522.38
2022-09-17T13:21:55.015Z,98522.16
2022-09-17T13:24:31.025Z,98496.81
2022-09-17T13:27:03.832Z,98495.31
2022-09-17T13:29:46.438Z,98520.44
2022-09-17T13:32:35.499Z,98523.28
2022-09-17T13:35:14.607Z,98524.78
2022-09-17T13:37:56.101Z,98507.72
2022-09-17T13:40:33.013Z,98518.16
2022-09-17T13:43:12.079Z,98518.16
2022-09-17T13:46:00.944Z,98515.59
2022-09-17T13:48:34.785Z,98512.00
2022-09-17T13:51:29.968Z,98532.03
2022-09-17T13:54:08.405Z,98517.06
2022-09-17T13:57:07.066Z,98529.53
2022-09-17T13:59:37.604Z,98538.59
2022-09-17T14:02:13.807Z,98527.38
2022-09-17T14:04:41.666Z,98524.63
2022-09-17T14:07:24.012Z,98548.69
2022-09-17T14:09:57.437Z,98527.22
2022-09-17T14:12:50.741Z,98531.69
2022-09-17T14:15:41.101Z,98520.72
2022-09-17T14:18:34.435Z,98527.81
2022-09-17T14:21:27.644Z,98528.34
2022-09-17T14:24:13.872Z,98514.72
2022-09-17T14:26:57.648Z,98524.16
2022-09-17T14:30:10.897Z,98536.34
2022-09-17T14:33:01.571Z,98527.41
2022-09-17T14:35:43.343Z,98518.47
2022-09-17T14:38:44.857Z,98512.72
2022-09-17T14:41:11.936Z,98511.72
2022-09-17T14:43:55.776Z,98505.03
2022-09-17T14:46:38.144Z,98514.78
2022-09-17T14:49:37.004Z,98514.88
2022-09-17T14:52:32.639Z,98520.47
2022-09-17T14:55:24.058Z,98515.78
2022-09-17T14:57:58.911Z,98511.03
2022-09-17T15:00:38.098Z,98511.78
2022-09-17T15:03:06.159Z,98521.25
2022-09-17T15:05:38.661Z,98514.81
2022-09-17T15:08:16.910Z,98515.00
2022-09-17T15:11:10.959Z,98507.81
2022-09-17T15:13:53.017Z,98519.13
2022-09-17T15:16:27.351Z,98506.31
2022-09-17T15:19:03.619Z,98514.78
2022-09-17T15:21:49.437Z,98518.00
2022-09-17T15:24:57.260Z,98521.19
2022-09-17T15:27:46.252Z,98515.00
2022-09-17T15:30:22.051Z,98505.50
2022-09-17T15:33:01.023Z,98523.31
2022-09-17T15:35:32.543Z,98519.09
2022-09-17T15:38:22.813Z,98515.78
2022-09-17T15:40:51.769Z,98514.44
2022-09-17T15:43:38.657Z,98523.78
2022-09-17T15:46:31.172Z,98529.34
2022-09-17T15:49:03.532Z,98532.28
2022-09-17T15:51:37.373Z,98538.16
2022-09-17T15:54:33.262Z,98533.28
2022-09-17T15:57:01.565Z,98547.66
2022-09-17T15:59:33.784Z,98544.78
2022-09-17T16:02:02.741Z,98542.25
2022-09-17T16:04:35.895Z,98540.06
2022-09-17T16:07:11.834Z,98544.06
2022-09-17T16:09:53.558Z,98539.81
2022-09-17T16:12:28.878Z,98551.84
2022-09-17T16:15:01.426Z,98550.91
2022-09-17T16:17:44.163Z,98548.34
2022-09-17T16:20:26.605Z,98558.16
2022-09-17T16:22:55.040Z,98559.78
2022-09-17T16:25:28.312Z,98555.56
2022-09-17T16:28:10.038Z,98561.03
2022-09-17T16:30:38.429Z,98563.75
2022-09-17T16:33:06.856Z,98567.19
2022-09-17T16:35:34.205Z,98556.88
2022-09-17T16:38:02.229Z,98565.56
2022-09-17T16:40:31.602Z,98561.34
2022-09-17T16:43:03.609Z,98571.34
2022-09-17T16:45:32.046Z,98586.72
2022-09-17T16:47:59.332Z,98578.91
2022-09-17T16:50:28.456Z,98576.22
2022-09-17T16:52:55.783Z,98583.25
2022-09-17T16:55:23.160Z,98593.25
2022-09-17T16:57:50.864Z,98597.38
2022-09-17T17:00:21.173Z,98582.75
2022-09-17T17:02:58.487Z,98596.63
2022-09-17T17:05:27.605Z,98597.72
2022-09-17T17:07:56.093Z,98580.59
2022-09-17T17:10:27.672Z,98590.03
2022-09-17T17:12:58.117Z,98578.22
2022-09-17T17:15:25.540Z,98593.69
2022-09-17T17:17:53.980Z,98588.59
2022-09-17T17:20:21.370Z,98596.75
2022-09-17T17:22:50.658Z,98595.38
2022-09-17T17:25:18.609Z,98598.69
2022-09-17T17:27:46.147Z,98598.78
2022-09-17T17:30:17.348Z,98602.47
2022-09-17T17:32:51.564Z,98594.53
2022-09-17T17:35:20.572Z,98595.03
2022-09-17T17:37:48.499Z,98591.03
2022-09-17T17:40:16.212Z,98591.22
2022-09-17T17:42:44.288Z,98585.78
2022-09-17T17:45:12.092Z,98600.88
2022-09-17T17:47:39.587Z,98595.44
2022-09-17T17:50:08.649Z,98600.19
2022-09-17T17:52:38.369Z,98611.34
2022-09-17T17:55:07.428Z,98616.13
2022-09-17T17:57:34.722Z,98616.78
2022-09-17T18:00:03.964Z,98621.59
2022-09-17T18:02:31.441Z,98621.81
2022-09-17T18:05:03.389Z,98631.47
2022-09-17T18:07:32.702Z,98635.03
2022-09-17T18:10:00.291Z,98629.56
2022-09-17T18:12:27.662Z,98630.38
2022-09-17T18:14:58.162Z,98647.75
2022-09-17T18:17:25.624Z,98638.91
2022-09-17T18:19:52.893Z,98650.91
2022-09-17T18:22:20.221Z,98651.16
2022-09-17T18:24:47.512Z,98649.91
2022-09-17T18:27:15.339Z,98653.03
2022-09-17T18:29:42.621Z,98656.16
2022-09-17T18:32:10.309Z,98653.69
2022-09-17T18:34:37.850Z,98660.38
2022-09-17T18:37:05.133Z,98664.56
2022-09-17T18:39:57.551Z,98668.31
2022-09-17T18:42:20.398Z,98675.03
2022-09-17T18:44:49.021Z,98685.28
2022-09-17T18:47:17.419Z,98680.03
2022-09-17T18:49:44.928Z,98695.00
2022-09-17T18:52:12.446Z,98701.19
2022-09-17T18:54:39.735Z,98700.88
2022-09-17T18:57:08.036Z,98704.16
2022-09-17T18:59:35.293Z,98708.63
2022-09-17T19:02:02.605Z,98710.47
2022-09-17T19:04:30.686Z,98707.06
2022-09-17T19:06:58.204Z,98706.56
2022-09-17T19:09:25.466Z,98706.97
2022-09-17T19:11:52.969Z,98711.78
2022-09-17T19:14:20.492Z,98716.38
2022-09-17T19:16:49.648Z,98706.94
2022-09-17T19:19:17.065Z,98704.03
2022-09-17T19:21:44.530Z,98699.00
2022-09-17T19:24:11.864Z,98711.53
2022-09-17T19:26:39.520Z,98713.88
2022-09-17T19:29:08.379Z,98710.31
2022-09-17T19:31:35.766Z,98711.97
2022-09-17T19:34:03.487Z,98716.59
2022-09-17T19:36:30.920Z,98707.75
2022-09-17T19:38:58.825Z,98722.81
2022-09-17T19:41:26.350Z,98714.78
2022-09-17T19:43:56.779Z,98720.75
2022-09-17T19:46:26.484Z,98720.25
2022-09-17T19:48:57.583Z,98718.97
2022-09-17T19:51:31.885Z,98724.41
2022-09-17T19:53:59.137Z,98717.94
2022-09-17T19:56:28.069Z,98716.53
2022-09-17T19:58:56.708Z,98736.03
2022-09-17T20:01:24.181Z,98729.50
2022-09-17T20:03:53.155Z,98738.75
2022-09-17T20:06:22.473Z,98737.66
2022-09-17T20:08:55.330Z,98736.97
2022-09-17T20:11:25.250Z,98722.94
2022-09-17T20:14:06.620Z,98736.16
2022-09-17T20:16:37.271Z,98738.44
2022-09-17T20:19:07.469Z,98728.56
2022-09-17T20:21:34.909Z,98737.28
2022-09-17T20:24:02.627Z,98732.00
2022-09-17T20:26:29.897Z,98733.66
2022-09-17T20:28:57.296Z,98739.28
2022-09-17T20:31:29.453Z,98730.66
2022-09-17T20:34:03.047Z,98734.03
2022-09-17T20:36:36.777Z,98735.41
2022-09-17T20:39:12.205Z,98726.47
2022-09-17T20:41:42.269Z,98746.88
2022-09-17T20:44:09.655Z,98741.13
2022-09-17T20:46:36.956Z,98740.19
2022-09-17T20:49:05.646Z,98742.91
2022-09-17T20:51:33.893Z,98745.38
2022-09-17T20:54:02.035Z,98750.31
2022-09-17T20:56:33.869Z,98747.16
2022-09-17T20:59:15.037Z,98754.41
2022-09-17T21:01:49.651Z,98748.31
2022-09-17T21:04:21.942Z,98751.97
2022-09-17T21:06:53.501Z,98750.69
2022-09-17T21:09:20.914Z,98750.38
2022-09-17T21:11:49.456Z,98750.63
2022-09-17T21:14:18.123Z,98757.63
2022-09-17T21:16:46.710Z,98754.78
2022-09-17T21:19:16.518Z,98753.81
2022-09-17T21:21:44.714Z,98754.03
2022-09-17T21:24:12.316Z,98760.84
2022-09-17T21:26:39.783Z,98748.91
2022-09-17T21:29:07.162Z,98751.78
2022-09-17T21:31:37.057Z,98747.84
2022-09-17T21:34:11.797Z,98747.66
2022-09-17T21:36:44.283Z,98757.34
2022-09-17T21:39:16.817Z,98756.31
2022-09-17T21:41:47.725Z,98756.91
2022-09-17T21:44:15.909Z,98758.25
2022-09-17T21:46:43.421Z,98758.03
2022-09-17T21:49:12.995Z,98752.78
2022-09-17T21:51:42.841Z,98761.19
2022-09-17T21:54:15.916Z,98758.22
2022-09-17T21:56:45.248Z,98756.06
2022-09-17T21:59:15.535Z,98754.38
2022-09-17T22:01:50.843Z,98756.47
2022-09-17T22:04:22.228Z,98764.25
2022-09-17T22:06:50.512Z,98763.59
2022-09-17T22:09:23.778Z,98758.06
2022-09-17T22:11:54.033Z,98753.16
2022-09-17T22:14:24.797Z,98770.09
2022-09-17T22:16:57.003Z,98771.91
2022-09-17T22:19:26.154Z,98761.91
2022-09-17T22:21:56.032Z,98767.00
2022-09-17T22:24:24.409Z,98761.19
2022-09-17T22:26:57.694Z,98768.78
2022-09-17T22:29:27.780Z,98770.31
2022-09-17T22:31:55.304Z,98767.13
2022-09-17T22:34:25.247Z,98766.13
2022-09-17T22:36:52.757Z,98774.97
2022-09-17T22:39:23.391Z,98764.06
2022-09-17T22:41:50.997Z,98764.63
2022-09-17T22:44:20.685Z,98753.97
2022-09-17T22:46:51.640Z,98752.84
2022-09-17T22:49:20.262Z,98753.88
2022-09-17T22:51:48.208Z,98756.59
2022-09-17T22:54:19.547Z,98749.06
2022-09-17T22:56:48.820Z,98751.19
2022-09-17T22:59:18.010Z,98754.47
2022-09-17T23:01:45.435Z,98756.59
2022-09-17T23:04:12.804Z,98760.00
2022-09-17T23:06:44.264Z,98743.88
2022-09-17T23:09:13.938Z,98750.22
2022-09-17T23:11:41.725Z,98743.19
2022-09-17T23:14:12.973Z,98736.03
2022-09-17T23:16:46.801Z,98737.25
2022-09-17T23:19:17.888Z,98737.38
2022-09-17T23:21:47.991Z,98742.91
2022-09-17T23:24:21.943Z,98745.09
2022-09-17T23:26:50.525Z,98743.13
2022-09-17T23:29:18.623Z,98741.38
2022-09-17T23:31:45.972Z,98745.59
2022-09-17T23:34:13.594Z,98738.38
2022-09-17T23:36:41.029Z,98741.19
2022-09-17T23:39:11.554Z,98740.63
2022-09-17T23:41:43.436Z,98741.81
2022-09-17T23:44:15.831Z,98748.78
2022-09-17T23:46:45.826Z,98751.06
2022-09-17T23:49:14.498Z,98745.03
2022-09-17T23:51:42.540Z,98746.72
2022-09-17T23:54:11.154Z,98739.03
2022-09-17T23:56:38.553Z,98742.91
2022-09-17T23:59:07.332Z,98746.25
